createdAt,value
2018-09-28T00:00:47.692Z,942.9
2018-09-28T00:01:47.600Z,942.8
2018-09-28T00:02:47.504Z,942.8
2018-09-28T00:03:47.674Z,942.8
2018-09-28T00:04:47.411Z,942.7
2018-09-28T00:05:47.169Z,942.7
2018-09-28T00:06:46.905Z,942.8
2018-09-28T00:07:46.713Z,942.8
2018-09-28T00:08:46.458Z,942.8
2018-09-28T00:09:46.199Z,942.8
2018-09-28T00:10:45.949Z,942.7
2018-09-28T00:11:45.705Z,942.7
2018-09-28T00:12:45.443Z,942.7
2018-09-28T00:13:45.620Z,942.7
2018-09-28T00:14:45.349Z,942.6
2018-09-28T00:15:45.092Z,942.5
2018-09-28T00:16:44.858Z,942.7
2018-09-28T00:17:44.596Z,942.5
2018-09-28T00:18:44.350Z,942.6
2018-09-28T00:19:44.099Z,942.6
2018-09-28T00:20:43.841Z,942.6
2018-09-28T00:21:43.601Z,942.5
2018-09-28T00:22:43.332Z,942.6
2018-09-28T00:23:43.681Z,942.6
2018-09-28T00:24:43.609Z,942.6
2018-09-28T00:25:43.519Z,942.5
2018-09-28T00:26:43.433Z,942.6
2018-09-28T00:27:43.356Z,942.6
2018-09-28T00:28:43.277Z,942.5
2018-09-28T00:29:43.180Z,942.6
2018-09-28T00:30:43.080Z,942.5
2018-09-28T00:31:42.988Z,942.5
2018-09-28T00:32:42.913Z,942.5
2018-09-28T00:33:43.268Z,942.4
2018-09-28T00:34:43.166Z,942.4
2018-09-28T00:35:43.256Z,942.2
2018-09-28T00:36:43.159Z,942.4
2018-09-28T00:37:43.082Z,942.4
2018-09-28T00:38:42.977Z,942.4
2018-09-28T00:39:42.887Z,942.4
2018-09-28T00:40:42.804Z,942.3
2018-09-28T00:41:42.715Z,942.3
2018-09-28T00:42:42.634Z,942.2
2018-09-28T00:43:43.013Z,942.4
2018-09-28T00:44:42.934Z,942.3
2018-09-28T00:45:42.839Z,942.3
2018-09-28T00:46:42.764Z,942.4
2018-09-28T00:47:42.710Z,942.3
2018-09-28T00:48:42.610Z,942.3
2018-09-28T00:49:42.525Z,942.3
2018-09-28T00:50:42.432Z,942.3
2018-09-28T00:51:42.339Z,942.2
2018-09-28T00:52:42.271Z,942.2
2018-09-28T00:53:42.603Z,942.2
2018-09-28T00:54:42.509Z,942.1
2018-09-28T00:55:42.412Z,942.2
2018-09-28T00:56:42.327Z,942.2
2018-09-28T00:57:42.243Z,942.1
2018-09-28T00:58:42.155Z,942.1
2018-09-28T00:59:42.076Z,942.1
2018-09-28T01:00:41.982Z,942.1
2018-09-28T01:01:41.887Z,942.1
2018-09-28T01:02:42.825Z,942.1
2018-09-28T01:03:42.992Z,942.1
2018-09-28T01:04:42.740Z,942
2018-09-28T01:05:42.470Z,942.1
2018-09-28T01:06:42.225Z,942.1
2018-09-28T01:07:41.976Z,941.8
2018-09-28T01:08:41.727Z,942
2018-09-28T01:09:41.453Z,942
2018-09-28T01:10:41.190Z,942
2018-09-28T01:11:40.945Z,942
2018-09-28T01:12:40.700Z,942
2018-09-28T01:13:41.296Z,941.9
2018-09-28T01:14:41.214Z,941.9
2018-09-28T01:15:41.785Z,941.9
2018-09-28T01:16:41.690Z,942
2018-09-28T01:17:41.587Z,942
2018-09-28T01:18:44.499Z,941.9
2018-09-28T01:19:44.398Z,941.8
2018-09-28T01:20:44.317Z,941.7
2018-09-28T01:21:44.236Z,941.9
2018-09-28T01:22:44.140Z,941.9
2018-09-28T01:23:44.321Z,941.7
2018-09-28T01:24:44.055Z,941.9
2018-09-28T01:25:43.787Z,941.8
2018-09-28T01:26:43.521Z,941.8
2018-09-28T01:27:43.286Z,941.8
2018-09-28T01:28:43.027Z,941.7
2018-09-28T01:29:43.015Z,941.8
2018-09-28T01:30:42.757Z,941.8
2018-09-28T01:31:42.505Z,941.8
2018-09-28T01:32:42.242Z,941.5
2018-09-28T01:33:45.718Z,941.6
2018-09-28T01:34:45.867Z,941.6
2018-09-28T01:35:45.783Z,941.7
2018-09-28T01:36:45.684Z,941.7
2018-09-28T01:37:45.625Z,941.7
2018-09-28T01:38:45.516Z,941.7
2018-09-28T01:39:45.423Z,941.7
2018-09-28T01:40:45.347Z,941.6
2018-09-28T01:41:45.268Z,941.5
2018-09-28T01:42:45.190Z,941.6
2018-09-28T01:43:45.546Z,941.7
2018-09-28T01:44:45.466Z,941.6
2018-09-28T01:45:45.383Z,941.7
2018-09-28T01:46:45.293Z,941.6
2018-09-28T01:47:45.201Z,941.6
2018-09-28T01:48:45.106Z,941.6
2018-09-28T01:49:45.254Z,941.6
2018-09-28T01:50:45.176Z,941.7
2018-09-28T01:51:45.080Z,941.7
2018-09-28T01:52:44.981Z,941.7
2018-09-28T01:53:45.182Z,941.6
2018-09-28T01:54:44.912Z,941.6
2018-09-28T01:55:44.676Z,941.6
2018-09-28T01:56:44.415Z,941.6
2018-09-28T01:57:44.162Z,941.4
2018-09-28T01:58:43.947Z,941.6
2018-09-28T01:59:43.689Z,941.7
2018-09-28T02:00:43.440Z,941.6
2018-09-28T02:01:43.178Z,941.6
2018-09-28T02:02:43.143Z,941.6
2018-09-28T02:03:43.728Z,941.5
2018-09-28T02:04:43.637Z,941.4
2018-09-28T02:05:43.570Z,941.4
2018-09-28T02:06:43.480Z,941.5
2018-09-28T02:07:43.643Z,941.5
2018-09-28T02:08:43.556Z,941.5
2018-09-28T02:09:43.460Z,941.4
2018-09-28T02:10:43.369Z,941.4
2018-09-28T02:11:43.274Z,941.5
2018-09-28T02:12:43.192Z,941.5
2018-09-28T02:13:43.541Z,941.3
2018-09-28T02:14:43.450Z,941.3
2018-09-28T02:15:43.558Z,941.4
2018-09-28T02:16:43.471Z,941.2
2018-09-28T02:17:43.384Z,941.5
2018-09-28T02:18:43.286Z,941.4
2018-09-28T02:19:43.204Z,941.4
2018-09-28T02:20:43.132Z,941.4
2018-09-28T02:21:45.644Z,941.3
2018-09-28T02:22:45.775Z,941.4
2018-09-28T02:23:46.344Z,941.3
2018-09-28T02:24:46.260Z,941.4
2018-09-28T02:25:46.185Z,941.3
2018-09-28T02:26:46.097Z,941.4
2018-09-28T02:27:45.996Z,941.4
2018-09-28T02:28:45.900Z,941.3
2018-09-28T02:29:45.817Z,941.4
2018-09-28T02:30:45.811Z,941.4
2018-09-28T02:31:45.944Z,941.4
2018-09-28T02:32:45.849Z,941.4
2018-09-28T02:33:46.225Z,941.4
2018-09-28T02:34:46.194Z,941.4
2018-09-28T02:35:46.127Z,941.4
2018-09-28T02:36:46.039Z,941.4
2018-09-28T02:37:45.934Z,941.4
2018-09-28T02:38:45.842Z,941.3
2018-09-28T02:39:45.765Z,941.3
2018-09-28T02:40:45.719Z,941.4
2018-09-28T02:41:45.886Z,941.3
2018-09-28T02:42:45.793Z,941.3
2018-09-28T02:43:46.179Z,941.4
2018-09-28T02:44:46.102Z,941.4
2018-09-28T02:45:46.008Z,941.4
2018-09-28T02:46:45.904Z,941.3
2018-09-28T02:47:45.840Z,941.3
2018-09-28T02:48:45.743Z,941.4
2018-09-28T02:49:45.901Z,941.3
2018-09-28T02:50:45.814Z,941.4
2018-09-28T02:51:45.710Z,941.4
2018-09-28T02:52:45.632Z,941.4
2018-09-28T02:53:46.020Z,941.4
2018-09-28T02:54:45.931Z,941.4
2018-09-28T02:55:45.834Z,941.4
2018-09-28T02:56:46.163Z,941.3
2018-09-28T02:57:46.098Z,941.2
2018-09-28T02:58:46.011Z,941.2
2018-09-28T02:59:45.918Z,941.3
2018-09-28T03:00:45.827Z,941.3
2018-09-28T03:01:45.745Z,941.2
2018-09-28T03:02:45.721Z,941.3
2018-09-28T03:03:46.105Z,941.3
2018-09-28T03:04:46.229Z,941.3
2018-09-28T03:05:46.151Z,941.2
2018-09-28T03:06:46.069Z,941.3
2018-09-28T03:07:46.065Z,941.3
2018-09-28T03:08:45.995Z,941.3
2018-09-28T03:09:45.919Z,941.2
2018-09-28T03:10:45.822Z,941.2
2018-09-28T03:11:45.736Z,941.1
2018-09-28T03:12:45.676Z,941
2018-09-28T03:13:46.083Z,941.2
2018-09-28T03:14:45.997Z,941.3
2018-09-28T03:15:45.920Z,941.2
2018-09-28T03:16:46.051Z,941.3
2018-09-28T03:17:45.965Z,941.3
2018-09-28T03:18:45.905Z,941.3
2018-09-28T03:19:45.816Z,941.3
2018-09-28T03:20:45.739Z,941.1
2018-09-28T03:21:45.683Z,941.2
2018-09-28T03:22:45.598Z,941.2
2018-09-28T03:23:45.940Z,941.2
2018-09-28T03:24:45.922Z,941.1
2018-09-28T03:25:46.169Z,941.2
2018-09-28T03:26:46.083Z,941.1
2018-09-28T03:27:45.991Z,941.1
2018-09-28T03:28:45.927Z,941.2
2018-09-28T03:29:45.862Z,941.2
2018-09-28T03:30:45.798Z,941.1
2018-09-28T03:31:45.732Z,941
2018-09-28T03:32:45.872Z,941.2
2018-09-28T03:33:46.466Z,941.2
2018-09-28T03:34:46.633Z,941.2
2018-09-28T03:35:46.536Z,941.1
2018-09-28T03:36:46.511Z,941
2018-09-28T03:37:46.412Z,941.1
2018-09-28T03:38:46.310Z,941.1
2018-09-28T03:39:46.276Z,941
2018-09-28T03:40:46.603Z,940.6
2018-09-28T03:41:46.507Z,941.1
2018-09-28T03:42:46.410Z,940.5
2018-09-28T03:43:46.985Z,941.1
2018-09-28T03:44:46.900Z,941.1
2018-09-28T03:45:46.810Z,941.1
2018-09-28T03:46:46.735Z,941
2018-09-28T03:47:46.662Z,941.1
2018-09-28T03:48:46.584Z,941.1
2018-09-28T03:49:46.487Z,941.1
2018-09-28T03:50:49.381Z,941.1
2018-09-28T03:51:49.279Z,941.1
2018-09-28T03:52:49.238Z,941.1
2018-09-28T03:53:50.088Z,941.1
2018-09-28T03:54:49.999Z,941
2018-09-28T03:55:49.934Z,941
2018-09-28T03:56:53.115Z,941
2018-09-28T03:57:53.036Z,941
2018-09-28T03:58:52.954Z,941
2018-09-28T03:59:52.858Z,940.9
2018-09-28T04:00:52.826Z,940.9
2018-09-28T04:01:52.963Z,940.9
2018-09-28T04:02:53.195Z,940.9
2018-09-28T04:03:53.601Z,940.9
2018-09-28T04:04:53.525Z,940.9
2018-09-28T04:05:53.684Z,940.8
2018-09-28T04:06:53.613Z,940.9
2018-09-28T04:07:53.535Z,940.9
2018-09-28T04:08:53.458Z,940.9
2018-09-28T04:09:53.394Z,941
2018-09-28T04:10:53.293Z,940.9
2018-09-28T04:11:53.250Z,940.7
2018-09-28T04:12:53.140Z,940.9
2018-09-28T04:13:53.918Z,941
2018-09-28T04:14:53.739Z,940.9
2018-09-28T04:15:53.528Z,940.9
2018-09-28T04:16:53.275Z,940.9
2018-09-28T04:17:53.041Z,941
2018-09-28T04:18:52.797Z,941
2018-09-28T04:19:52.538Z,941
2018-09-28T04:20:52.495Z,940.9
2018-09-28T04:21:52.502Z,941
2018-09-28T04:22:52.305Z,941
2018-09-28T04:23:52.721Z,941
2018-09-28T04:24:52.641Z,940.9
2018-09-28T04:25:52.779Z,941
2018-09-28T04:26:52.889Z,941.1
2018-09-28T04:27:52.788Z,941
2018-09-28T04:28:52.939Z,941.1
2018-09-28T04:29:52.854Z,941
2018-09-28T04:30:52.769Z,940.9
2018-09-28T04:31:52.673Z,941
2018-09-28T04:32:52.579Z,941
2018-09-28T04:33:52.972Z,941.1
2018-09-28T04:34:53.148Z,941
2018-09-28T04:35:53.083Z,941
2018-09-28T04:36:57.007Z,941
2018-09-28T04:37:56.916Z,941
2018-09-28T04:38:56.849Z,941
2018-09-28T04:39:56.985Z,941
2018-09-28T04:40:57.126Z,941
2018-09-28T04:41:57.032Z,940.9
2018-09-28T04:42:56.950Z,941.1
2018-09-28T04:43:57.846Z,941.1
2018-09-28T04:44:57.576Z,941
2018-09-28T04:45:57.312Z,941.1
2018-09-28T04:46:57.054Z,941.1
2018-09-28T04:47:56.813Z,941.1
2018-09-28T04:48:56.536Z,941.1
2018-09-28T04:49:56.292Z,941.1
2018-09-28T04:50:56.032Z,941
2018-09-28T04:51:55.778Z,941
2018-09-28T04:52:55.531Z,941.1
2018-09-28T04:53:55.896Z,941
2018-09-28T04:54:55.821Z,941.1
2018-09-28T04:55:56.419Z,941
2018-09-28T04:56:56.333Z,941.1
2018-09-28T04:57:56.228Z,941
2018-09-28T04:58:56.154Z,940.7
2018-09-28T04:59:56.080Z,941
2018-09-28T05:00:55.975Z,941.1
2018-09-28T05:01:55.878Z,941.1
2018-09-28T05:02:56.009Z,941.1
2018-09-28T05:03:56.353Z,941.1
2018-09-28T05:04:56.538Z,941.1
2018-09-28T05:05:56.452Z,941.1
2018-09-28T05:06:56.434Z,941.2
2018-09-28T05:07:56.346Z,941.1
2018-09-28T05:08:56.940Z,941.1
2018-09-28T05:09:56.845Z,941.1
2018-09-28T05:10:56.759Z,941.1
2018-09-28T05:11:56.883Z,941.1
2018-09-28T05:12:57.091Z,941
2018-09-28T05:13:57.340Z,941.2
2018-09-28T05:14:57.313Z,941.1
2018-09-28T05:15:57.080Z,941.1
2018-09-28T05:16:56.849Z,941.2
2018-09-28T05:17:56.581Z,941.1
2018-09-28T05:18:56.323Z,941.1
2018-09-28T05:19:56.282Z,941.1
2018-09-28T05:20:56.044Z,941.2
2018-09-28T05:21:55.800Z,941.1
2018-09-28T05:22:55.528Z,941.1
2018-09-28T05:23:55.882Z,941
2018-09-28T05:24:55.776Z,941.1
2018-09-28T05:25:55.710Z,941.1
2018-09-28T05:26:55.612Z,940.7
2018-09-28T05:27:55.525Z,941
2018-09-28T05:28:55.433Z,941.2
2018-09-28T05:29:55.358Z,941.2
2018-09-28T05:30:55.530Z,941.2
2018-09-28T05:31:56.821Z,941.2
2018-09-28T05:32:58.556Z,941.2
2018-09-28T05:33:59.575Z,941.1
2018-09-28T05:34:59.506Z,941.2
2018-09-28T05:35:59.442Z,941.2
2018-09-28T05:36:59.342Z,941.2
2018-09-28T05:37:59.515Z,941.2
2018-09-28T05:38:59.419Z,941.2
2018-09-28T05:39:59.330Z,941.2
2018-09-28T05:41:01.959Z,941.2
2018-09-28T05:42:01.878Z,941.2
2018-09-28T05:43:01.793Z,941.2
2018-09-28T05:44:02.394Z,941.2
2018-09-28T05:45:02.303Z,941.2
2018-09-28T05:46:02.256Z,941.1
2018-09-28T05:47:02.213Z,941.2
2018-09-28T05:48:02.109Z,941.2
2018-09-28T05:49:02.031Z,941.1
2018-09-28T05:50:01.941Z,941.2
2018-09-28T05:51:02.111Z,941.2
2018-09-28T05:52:02.064Z,941.1
2018-09-28T05:53:01.975Z,941.2
2018-09-28T05:54:02.314Z,941.2
2018-09-28T05:55:02.226Z,941.2
2018-09-28T05:56:02.125Z,941.2
2018-09-28T05:57:02.065Z,941.2
2018-09-28T05:58:01.996Z,941.1
2018-09-28T05:59:01.903Z,941.3
2018-09-28T06:00:01.813Z,941.1
2018-09-28T06:01:01.725Z,941.2
2018-09-28T06:02:01.634Z,941.1
2018-09-28T06:03:02.247Z,941.2
2018-09-28T06:04:02.706Z,941.1
2018-09-28T06:05:03.304Z,941.1
2018-09-28T06:06:03.218Z,941.2
2018-09-28T06:07:03.147Z,941.2
2018-09-28T06:08:03.191Z,941.2
2018-09-28T06:09:03.110Z,941.2
2018-09-28T06:10:03.038Z,941.2
2018-09-28T06:11:02.955Z,941.2
2018-09-28T06:12:03.094Z,941.2
2018-09-28T06:13:03.027Z,941.3
2018-09-28T06:14:03.227Z,941.3
2018-09-28T06:15:03.217Z,941.3
2018-09-28T06:16:02.957Z,941.3
2018-09-28T06:17:02.709Z,940.9
2018-09-28T06:18:02.967Z,941.2
2018-09-28T06:19:03.353Z,941.3
2018-09-28T06:20:03.192Z,941.4
2018-09-28T06:21:02.950Z,941.3
2018-09-28T06:22:02.746Z,941.3
2018-09-28T06:23:02.499Z,941.3
2018-09-28T06:24:03.316Z,941.2
2018-09-28T06:25:03.249Z,941.3
2018-09-28T06:26:03.814Z,941.3
2018-09-28T06:27:04.487Z,941.3
2018-09-28T06:28:04.423Z,941.4
2018-09-28T06:29:04.358Z,941.3
2018-09-28T06:30:05.184Z,941.4
2018-09-28T06:31:05.110Z,941.4
2018-09-28T06:32:05.017Z,941.4
2018-09-28T06:33:04.947Z,941.3
2018-09-28T06:34:05.329Z,941.4
2018-09-28T06:35:05.244Z,941.4
2018-09-28T06:36:05.431Z,941.4
2018-09-28T06:37:05.565Z,941.3
2018-09-28T06:38:05.720Z,941.2
2018-09-28T06:39:05.658Z,941.3
2018-09-28T06:40:05.569Z,941.4
2018-09-28T06:41:05.490Z,941.4
2018-09-28T06:42:06.781Z,941.3
2018-09-28T06:43:06.827Z,941.4
2018-09-28T06:44:07.214Z,941.4
2018-09-28T06:45:07.110Z,941
2018-09-28T06:46:07.077Z,941.4
2018-09-28T06:47:07.011Z,941.3
2018-09-28T06:48:07.250Z,941.3
2018-09-28T06:49:07.447Z,941.4
2018-09-28T06:50:07.365Z,941.4
2018-09-28T06:51:07.419Z,941.3
2018-09-28T06:52:07.686Z,941.4
2018-09-28T06:53:07.608Z,941.3
2018-09-28T06:54:08.316Z,941.4
2018-09-28T06:55:08.313Z,941.3
2018-09-28T06:56:08.505Z,940.8
2018-09-28T06:57:08.417Z,941.3
2018-09-28T06:58:08.604Z,941.3
2018-09-28T06:59:12.186Z,941.3
2018-09-28T07:00:12.480Z,941.3
2018-09-28T07:01:12.507Z,941.4
2018-09-28T07:02:12.458Z,941.3
2018-09-28T07:03:12.368Z,941.3
2018-09-28T07:04:12.758Z,941.3
2018-09-28T07:05:12.722Z,941.4
2018-09-28T07:06:13.091Z,941.4
2018-09-28T07:07:13.087Z,941.4
2018-09-28T07:08:16.130Z,941.4
2018-09-28T07:09:16.393Z,941.4
2018-09-28T07:10:16.349Z,941.4
2018-09-28T07:11:16.251Z,941.5
2018-09-28T07:12:19.271Z,941.5
2018-09-28T07:13:19.244Z,941.5
2018-09-28T07:14:19.609Z,941.4
2018-09-28T07:15:19.603Z,941.5
2018-09-28T07:16:20.013Z,941.5
2018-09-28T07:17:19.993Z,941.4
2018-09-28T07:18:29.379Z,941.5
2018-09-28T07:19:29.306Z,941.4
2018-09-28T07:20:29.310Z,941.5
2018-09-28T07:21:29.236Z,941.5
2018-09-28T07:22:29.404Z,941.5
2018-09-28T07:23:29.311Z,941.4
2018-09-28T07:24:30.246Z,941.4
2018-09-28T07:25:30.700Z,941.4
2018-09-28T07:26:30.437Z,941.5
2018-09-28T07:27:30.199Z,941.5
2018-09-28T07:28:29.935Z,941.4
2018-09-28T07:29:29.666Z,941.5
2018-09-28T07:30:29.417Z,941.4
2018-09-28T07:31:29.161Z,941.5
2018-09-28T07:32:28.913Z,941.3
2018-09-28T07:33:28.649Z,941.4
2018-09-28T07:34:28.838Z,941.5
2018-09-28T07:35:28.575Z,941.5
2018-09-28T07:36:29.371Z,941.3
2018-09-28T07:37:29.288Z,941.5
2018-09-28T07:38:29.024Z,941.5
2018-09-28T07:39:28.827Z,941.4
2018-09-28T07:40:28.572Z,941.5
2018-09-28T07:41:28.333Z,941.5
2018-09-28T07:42:28.079Z,940.9
2018-09-28T07:43:27.826Z,941.5
2018-09-28T07:44:28.028Z,941.5
2018-09-28T07:45:27.769Z,941.3
2018-09-28T07:46:27.521Z,941.5
2018-09-28T07:47:27.282Z,941.5
2018-09-28T07:48:27.021Z,941.4
2018-09-28T07:49:26.759Z,941.4
2018-09-28T07:50:26.498Z,941.5
2018-09-28T07:51:26.238Z,941.5
2018-09-28T07:52:26.031Z,941.5
2018-09-28T07:53:25.779Z,941.4
2018-09-28T07:54:25.962Z,941.5
2018-09-28T07:55:25.701Z,941.6
2018-09-28T07:56:25.441Z,941.6
2018-09-28T07:57:25.200Z,941.5
2018-09-28T07:58:24.947Z,941.6
2018-09-28T07:59:24.687Z,941.5
2018-09-28T08:00:24.441Z,941.5
2018-09-28T08:01:24.211Z,941.5
2018-09-28T08:02:23.963Z,941.5
2018-09-28T08:03:23.720Z,941.5
2018-09-28T08:04:24.465Z,941.6
2018-09-28T08:05:24.433Z,941.5
2018-09-28T08:06:24.339Z,941.4
2018-09-28T08:07:24.251Z,941.1
2018-09-28T08:08:24.182Z,941.5
2018-09-28T08:09:24.091Z,941.5
2018-09-28T08:10:23.995Z,941.5
2018-09-28T08:11:24.134Z,941.5
2018-09-28T08:12:24.048Z,941.5
2018-09-28T08:13:24.186Z,941.5
2018-09-28T08:14:24.777Z,941.5
2018-09-28T08:15:24.691Z,941.5
2018-09-28T08:16:24.594Z,941.6
2018-09-28T08:17:24.504Z,941.5
2018-09-28T08:18:24.420Z,941.5
2018-09-28T08:19:24.340Z,941.5
2018-09-28T08:20:24.256Z,941.5
2018-09-28T08:21:24.180Z,941.5
2018-09-28T08:22:24.104Z,941.6
2018-09-28T08:23:24.441Z,941.5
2018-09-28T08:24:25.151Z,941.5
2018-09-28T08:25:25.072Z,941.6
2018-09-28T08:26:24.814Z,941.5
2018-09-28T08:27:24.569Z,941.5
2018-09-28T08:28:24.314Z,941.6
2018-09-28T08:29:24.083Z,941.4
2018-09-28T08:30:24.137Z,941.5
2018-09-28T08:31:24.975Z,941.5
2018-09-28T08:32:24.936Z,941.6
2018-09-28T08:33:24.680Z,941.5
2018-09-28T08:34:26.279Z,941.5
2018-09-28T08:35:26.197Z,941.5
2018-09-28T08:36:27.290Z,941.5
2018-09-28T08:37:27.270Z,941.6
2018-09-28T08:38:27.174Z,941.6
2018-09-28T08:39:27.159Z,941.6
2018-09-28T08:40:27.085Z,941.6
2018-09-28T08:41:26.993Z,941.6
2018-09-28T08:42:27.132Z,941.5
2018-09-28T08:43:27.384Z,941.5
2018-09-28T08:44:27.677Z,941.5
2018-09-28T08:45:27.460Z,941.6
2018-09-28T08:46:27.235Z,941.6
2018-09-28T08:47:26.986Z,941.2
2018-09-28T08:48:26.773Z,941.4
2018-09-28T08:49:26.516Z,941.6
2018-09-28T08:50:26.275Z,941.4
2018-09-28T08:51:26.033Z,941.5
2018-09-28T08:52:25.773Z,941.5
2018-09-28T08:53:25.508Z,941.6
2018-09-28T08:54:25.874Z,941.5
2018-09-28T08:55:25.805Z,941.5
2018-09-28T08:56:25.730Z,941.5
2018-09-28T08:57:25.647Z,941.5
2018-09-28T08:58:25.570Z,941.5
2018-09-28T08:59:25.721Z,941.5
2018-09-28T09:00:25.663Z,941.5
2018-09-28T09:01:25.598Z,941.5
2018-09-28T09:02:25.519Z,941.5
2018-09-28T09:03:25.666Z,941.5
2018-09-28T09:04:26.035Z,941.5
2018-09-28T09:05:25.933Z,941.4
2018-09-28T09:06:25.861Z,941.4
2018-09-28T09:07:25.787Z,941
2018-09-28T09:08:25.687Z,941.4
2018-09-28T09:09:25.599Z,941.4
2018-09-28T09:10:25.514Z,941.4
2018-09-28T09:11:25.439Z,941.4
2018-09-28T09:12:25.361Z,941.4
2018-09-28T09:13:25.310Z,941.4
2018-09-28T09:14:25.656Z,941.4
2018-09-28T09:15:25.576Z,941.3
2018-09-28T09:16:25.499Z,941.3
2018-09-28T09:17:25.460Z,941.3
2018-09-28T09:18:26.337Z,941.3
2018-09-28T09:19:26.355Z,941.4
2018-09-28T09:20:26.270Z,941.3
2018-09-28T09:21:26.217Z,941.3
2018-09-28T09:22:26.157Z,941.3
2018-09-28T09:23:26.063Z,941.3
2018-09-28T09:24:26.825Z,941.3
2018-09-28T09:25:26.989Z,941.3
2018-09-28T09:26:26.946Z,941
2018-09-28T09:27:27.045Z,941.2
2018-09-28T09:28:26.983Z,941.2
2018-09-28T09:29:26.898Z,941.3
2018-09-28T09:30:26.812Z,941.2
2018-09-28T09:31:26.740Z,941.2
2018-09-28T09:32:26.656Z,941.3
2018-09-28T09:33:26.580Z,941.3
2018-09-28T09:34:26.931Z,941.2
2018-09-28T09:35:26.835Z,941.1
2018-09-28T09:36:27.093Z,941.1
2018-09-28T09:37:27.023Z,941.2
2018-09-28T09:38:27.550Z,941.2
2018-09-28T09:39:27.465Z,941.2
2018-09-28T09:40:27.401Z,941.1
2018-09-28T09:41:27.341Z,941.1
2018-09-28T09:42:27.443Z,941.2
2018-09-28T09:43:27.378Z,941
2018-09-28T09:44:27.779Z,941.1
2018-09-28T09:45:27.752Z,941.1
2018-09-28T09:46:27.676Z,941.1
2018-09-28T09:47:27.579Z,941.1
2018-09-28T09:48:28.170Z,941.1
2018-09-28T09:49:28.106Z,941.1
2018-09-28T09:50:27.999Z,941.1
2018-09-28T09:51:28.133Z,941
2018-09-28T09:52:28.051Z,941.1
2018-09-28T09:53:27.961Z,941.1
2018-09-28T09:54:29.333Z,941
2018-09-28T09:55:29.243Z,941
2018-09-28T09:56:29.381Z,941.1
2018-09-28T09:57:29.299Z,941
2018-09-28T09:58:29.224Z,941
2018-09-28T09:59:29.390Z,941
2018-09-28T10:00:29.308Z,941
2018-09-28T10:01:29.228Z,940.9
2018-09-28T10:02:29.149Z,941
2018-09-28T10:03:29.729Z,941
2018-09-28T10:04:30.135Z,941
2018-09-28T10:05:30.062Z,941
2018-09-28T10:06:29.984Z,940.8
2018-09-28T10:07:29.893Z,940.8
2018-09-28T10:08:30.480Z,940.9
2018-09-28T10:09:30.660Z,940.8
2018-09-28T10:10:30.580Z,940.8
2018-09-28T10:11:31.192Z,940.9
2018-09-28T10:12:32.408Z,940.9
2018-09-28T10:13:32.445Z,940.9
2018-09-28T10:14:35.675Z,940.7
2018-09-28T10:15:35.571Z,940.7
2018-09-28T10:16:35.600Z,940.8
2018-09-28T10:17:35.366Z,940.8
2018-09-28T10:18:35.113Z,940.9
2018-09-28T10:19:35.122Z,940.8
2018-09-28T10:20:34.873Z,940.9
2018-09-28T10:21:34.843Z,940.9
2018-09-28T10:22:34.592Z,940.8
2018-09-28T10:23:34.343Z,940.8
2018-09-28T10:24:34.521Z,940.8
2018-09-28T10:25:34.544Z,940.8
2018-09-28T10:26:34.290Z,940.8
2018-09-28T10:27:34.447Z,940.9
2018-09-28T10:28:34.602Z,940.8
2018-09-28T10:29:34.371Z,940.9
2018-09-28T10:30:34.147Z,940.8
2018-09-28T10:31:33.880Z,940.9
2018-09-28T10:32:33.625Z,940.9
2018-09-28T10:33:33.584Z,940.9
2018-09-28T10:34:34.370Z,940.9
2018-09-28T10:35:34.315Z,940.9
2018-09-28T10:36:34.227Z,940.9
2018-09-28T10:37:34.352Z,940.9
2018-09-28T10:38:34.268Z,940.8
2018-09-28T10:39:34.522Z,940.8
2018-09-28T10:40:35.708Z,940.8
2018-09-28T10:41:35.644Z,940.7
2018-09-28T10:42:35.567Z,940.8
2018-09-28T10:43:35.505Z,940.8
2018-09-28T10:44:35.893Z,940.7
2018-09-28T10:45:36.170Z,940.7
2018-09-28T10:46:36.631Z,940.7
2018-09-28T10:47:36.617Z,940.6
2018-09-28T10:48:36.687Z,940.7
2018-09-28T10:49:36.842Z,940.6
2018-09-28T10:50:36.798Z,940.6
2018-09-28T10:51:37.354Z,940.6
2018-09-28T10:52:40.622Z,940.6
2018-09-28T10:53:40.608Z,940.6
2018-09-28T10:54:40.967Z,940.2
2018-09-28T10:55:40.941Z,940.6
2018-09-28T10:56:40.882Z,940.2
2018-09-28T10:57:40.790Z,940.5
2018-09-28T10:58:41.311Z,940.5
2018-09-28T10:59:41.228Z,940.6
2018-09-28T11:00:41.140Z,940.5
2018-09-28T11:01:41.096Z,940.5
2018-09-28T11:02:40.988Z,940.5
2018-09-28T11:03:41.466Z,940.1
2018-09-28T11:04:42.709Z,940.1
2018-09-28T11:05:42.701Z,940.5
2018-09-28T11:06:42.628Z,940.5
2018-09-28T11:07:42.552Z,940.4
2018-09-28T11:08:42.760Z,940.3
2018-09-28T11:09:43.237Z,940.4
2018-09-28T11:10:43.889Z,940.4
2018-09-28T11:11:44.049Z,940.3
2018-09-28T11:12:44.007Z,940.4
2018-09-28T11:13:43.931Z,940.5
2018-09-28T11:14:44.533Z,940.4
2018-09-28T11:15:45.028Z,940.4
2018-09-28T11:16:48.009Z,940.4
2018-09-28T11:17:47.916Z,940.3
2018-09-28T11:18:48.144Z,940
2018-09-28T11:19:48.300Z,940.3
2018-09-28T11:20:48.214Z,940.4
2018-09-28T11:21:48.689Z,940.3
2018-09-28T11:22:48.677Z,940.3
2018-09-28T11:23:48.615Z,940.3
2018-09-28T11:24:48.999Z,940.3
2018-09-28T11:25:49.593Z,940.3
2018-09-28T11:26:49.360Z,940.3
2018-09-28T11:27:49.698Z,940.3
2018-09-28T11:28:49.511Z,940.2
2018-09-28T11:29:49.498Z,940.2
2018-09-28T11:30:49.234Z,940.3
2018-09-28T11:31:48.980Z,940.2
2018-09-28T11:32:48.741Z,940.2
2018-09-28T11:33:48.852Z,940.2
2018-09-28T11:34:49.511Z,940.2
2018-09-28T11:35:49.414Z,940.3
2018-09-28T11:36:52.356Z,940.2
2018-09-28T11:37:53.184Z,940.2
2018-09-28T11:38:53.189Z,940.2
2018-09-28T11:39:53.138Z,940.2
2018-09-28T11:40:53.045Z,940.1
2018-09-28T11:41:52.995Z,940.1
2018-09-28T11:42:52.920Z,940.1
2018-09-28T11:43:52.828Z,940.2
2018-09-28T11:44:53.173Z,940
2018-09-28T11:45:54.206Z,940
2018-09-28T11:46:54.146Z,940
2018-09-28T11:47:54.070Z,940.1
2018-09-28T11:48:54.245Z,940.1
2018-09-28T11:49:54.169Z,940.1
2018-09-28T11:50:54.092Z,940.1
2018-09-28T11:51:53.992Z,940.1
2018-09-28T11:52:53.956Z,940
2018-09-28T11:53:53.854Z,940
2018-09-28T11:54:54.670Z,940
2018-09-28T11:55:54.579Z,940
2018-09-28T11:56:54.772Z,940
2018-09-28T11:57:54.693Z,940
2018-09-28T11:58:54.818Z,939.9
2018-09-28T11:59:54.999Z,939.9
2018-09-28T12:00:54.973Z,940
2018-09-28T12:02:00.246Z,940
2018-09-28T12:03:00.174Z,940
2018-09-28T12:04:00.094Z,939.9
2018-09-28T12:05:00.751Z,939.9
2018-09-28T12:06:00.880Z,939.9
2018-09-28T12:07:01.423Z,939.9
2018-09-28T12:08:01.590Z,939.9
2018-09-28T12:09:01.499Z,939.9
2018-09-28T12:10:01.470Z,939.9
2018-09-28T12:11:02.080Z,939.8
2018-09-28T12:12:02.020Z,939.9
2018-09-28T12:13:01.945Z,939.9
2018-09-28T12:14:02.331Z,939.8
2018-09-28T12:15:02.693Z,939.8
2018-09-28T12:16:02.625Z,939.5
2018-09-28T12:17:02.371Z,939.8
2018-09-28T12:18:02.137Z,939.8
2018-09-28T12:19:01.887Z,939.8
2018-09-28T12:20:01.632Z,939.8
2018-09-28T12:21:01.373Z,939.8
2018-09-28T12:22:01.336Z,939.7
2018-09-28T12:23:01.099Z,939.7
2018-09-28T12:24:00.832Z,939.6
2018-09-28T12:25:02.268Z,939.6
2018-09-28T12:26:02.189Z,939.6
2018-09-28T12:27:02.089Z,939.2
2018-09-28T12:28:02.021Z,939.6
2018-09-28T12:29:02.941Z,939.5
2018-09-28T12:30:02.859Z,939.6
2018-09-28T12:31:02.799Z,939.6
2018-09-28T12:32:05.711Z,939.6
2018-09-28T12:33:05.811Z,939.5
2018-09-28T12:34:05.755Z,939.5
2018-09-28T12:35:06.148Z,939.5
2018-09-28T12:36:06.135Z,939.5
2018-09-28T12:37:05.883Z,939.5
2018-09-28T12:38:05.625Z,939.4
2018-09-28T12:39:05.740Z,939.5
2018-09-28T12:40:06.128Z,939.1
2018-09-28T12:41:05.964Z,939.4
2018-09-28T12:42:05.775Z,939.4
2018-09-28T12:43:05.528Z,939.4
2018-09-28T12:44:05.279Z,939.2
2018-09-28T12:45:07.289Z,939.4
2018-09-28T12:46:07.298Z,939.3
2018-09-28T12:47:07.218Z,939.4
2018-09-28T12:48:07.494Z,939.4
2018-09-28T12:49:07.408Z,939.4
2018-09-28T12:50:07.554Z,939.4
2018-09-28T12:51:10.495Z,939.4
2018-09-28T12:52:10.467Z,939.3
2018-09-28T12:53:10.376Z,939.4
2018-09-28T12:54:10.583Z,939.3
2018-09-28T12:55:11.310Z,939.3
2018-09-28T12:56:11.512Z,939.2
2018-09-28T12:57:11.434Z,939.3
2018-09-28T12:58:11.358Z,939.3
2018-09-28T12:59:11.314Z,939.3